Ideal, South Dakota
Current Conditions -  °F | °C
As of 5:53 AM on Sunday 25 Jan 2015 (Local Time) from KICR Reporting Station
Overcast Overcast  
Wind Chill: 28°   Ceiling: 2600
Heat Index: 39°   Visibility: 10mi
Dew Point: 31°   Wind: 23mph
Humidity: 73%   Direction: 310°NW
Pressure: 29.95"   Gusts: 31mph
Location:  43.54°N, 99.9°W
Report Text: KICR 251153Z AUTO 31020G27KT 10SM OVC026 04/M01 A2995 RMK AO2 PK WND 32027/1145 SLP151 60001 70003 T00391006 10044 20033 51016
Loading
Personal Weather Stations






























Interactive Weather Map New forecast layout! Learn more

10-Day Weather Forecast

Advertisements
Track Severe Weather on mobile